createdAt,value
2023-05-06T00:00:54.101Z,22.40
2023-05-06T00:03:21.438Z,22.42
2023-05-06T00:05:49.398Z,22.49
2023-05-06T00:08:17.278Z,22.52
2023-05-06T00:10:46.026Z,22.62
2023-05-06T00:13:14.742Z,22.66
2023-05-06T00:15:41.918Z,22.66
2023-05-06T00:18:09.193Z,22.60
2023-05-06T00:20:36.490Z,22.51
2023-05-06T00:23:03.604Z,22.43
2023-05-06T00:25:30.650Z,22.51
2023-05-06T00:30:25.800Z,22.52
2023-05-06T00:32:54.957Z,22.54
2023-05-06T00:35:22.066Z,22.47
2023-05-06T00:37:58.478Z,22.46
2023-05-06T00:40:25.595Z,22.46
2023-05-06T00:42:52.625Z,22.49
2023-05-06T00:47:46.837Z,22.55
2023-05-06T00:50:14.079Z,22.49
2023-05-06T00:52:41.292Z,22.43
2023-05-06T00:55:09.708Z,22.47
2023-05-06T00:57:37.691Z,22.40
2023-05-06T01:03:28.977Z,22.35
2023-05-06T01:06:01.891Z,22.44
2023-05-06T01:08:47.631Z,22.24
2023-05-06T01:11:40.059Z,22.31
2023-05-06T01:14:18.308Z,22.26
2023-05-06T01:16:50.479Z,22.30
2023-05-06T01:19:34.984Z,22.38
2023-05-06T01:22:05.327Z,22.37
2023-05-06T01:24:43.664Z,22.35
2023-05-06T01:27:12.921Z,22.32
2023-05-06T01:29:46.702Z,22.30
2023-05-06T01:32:19.764Z,22.33
2023-05-06T01:35:08.948Z,22.33
2023-05-06T01:37:46.724Z,22.32
2023-05-06T01:40:16.839Z,22.31
2023-05-06T01:42:47.801Z,22.22
2023-05-06T01:45:17.146Z,22.21
2023-05-06T01:47:46.998Z,22.20
2023-05-06T01:50:14.527Z,22.20
2023-05-06T01:52:41.794Z,22.24
2023-05-06T01:55:09.782Z,22.23
2023-05-06T01:57:36.945Z,22.21
2023-05-06T02:00:04.451Z,22.08
2023-05-06T02:02:39.302Z,22.03
2023-05-06T02:05:08.676Z,22.16
2023-05-06T02:07:40.429Z,22.13
2023-05-06T02:10:11.628Z,22.08
2023-05-06T02:12:42.416Z,22.08
2023-05-06T02:15:10.099Z,22.04
2023-05-06T02:17:38.700Z,22.01
2023-05-06T02:20:06.509Z,21.95
2023-05-06T02:22:33.622Z,21.96
2023-05-06T02:25:01.272Z,21.99
2023-05-06T02:27:28.344Z,22.02
2023-05-06T02:29:55.692Z,21.99
2023-05-06T02:32:22.909Z,21.94
2023-05-06T02:34:49.927Z,21.78
2023-05-06T02:37:16.979Z,21.91
2023-05-06T02:39:44.131Z,21.79
2023-05-06T02:42:15.035Z,21.78
2023-05-06T02:44:42.533Z,21.87
2023-05-06T02:47:09.629Z,21.86
2023-05-06T02:49:39.234Z,21.83
2023-05-06T02:52:09.637Z,21.73
2023-05-06T02:54:39.517Z,21.85
2023-05-06T02:57:06.666Z,21.85
2023-05-06T02:59:35.872Z,21.81
2023-05-06T03:02:03.381Z,21.75
2023-05-06T03:04:30.908Z,21.61
2023-05-06T03:06:58.192Z,21.45
2023-05-06T03:09:25.332Z,21.47
2023-05-06T03:11:52.448Z,21.42
2023-05-06T03:14:20.896Z,21.39
2023-05-06T03:16:48.092Z,21.31
2023-05-06T03:19:16.065Z,21.45
2023-05-06T03:21:44.824Z,21.31
2023-05-06T03:24:12.135Z,21.31
2023-05-06T03:26:42.183Z,21.37
2023-05-06T03:29:11.765Z,21.40
2023-05-06T03:31:42.743Z,21.38
2023-05-06T03:34:11.437Z,21.38
2023-05-06T03:36:38.673Z,21.35
2023-05-06T03:39:05.983Z,21.33
2023-05-06T03:41:35.189Z,21.46
2023-05-06T03:44:02.479Z,21.51
2023-05-06T03:46:32.008Z,21.42
2023-05-06T03:49:00.955Z,21.36
2023-05-06T03:51:31.218Z,21.32
2023-05-06T03:53:58.472Z,21.40
2023-05-06T03:56:25.599Z,21.39
2023-05-06T03:58:55.292Z,21.49
2023-05-06T04:01:24.812Z,21.36
2023-05-06T04:03:52.950Z,21.34
2023-05-06T04:06:20.233Z,21.38
2023-05-06T04:08:47.729Z,21.37
2023-05-06T04:11:15.160Z,21.35
2023-05-06T04:13:42.853Z,21.40
2023-05-06T04:16:14.804Z,21.35
2023-05-06T04:18:47.672Z,21.36
2023-05-06T04:21:19.017Z,21.28
2023-05-06T04:23:52.824Z,21.36
2023-05-06T04:26:25.365Z,21.34
2023-05-06T04:28:52.445Z,21.24
2023-05-06T04:31:19.755Z,21.40
2023-05-06T04:33:50.133Z,21.42
2023-05-06T04:36:21.604Z,21.40
2023-05-06T04:39:10.579Z,21.40
2023-05-06T04:41:38.736Z,21.34
2023-05-06T04:44:06.464Z,21.39
2023-05-06T04:46:34.292Z,21.28
2023-05-06T04:49:02.985Z,21.37
2023-05-06T04:51:31.802Z,21.31
2023-05-06T04:53:59.902Z,21.33
2023-05-06T04:56:27.059Z,21.32
2023-05-06T04:58:54.415Z,21.29
2023-05-06T05:01:22.651Z,21.21
2023-05-06T05:03:53.031Z,21.28
2023-05-06T05:06:21.868Z,21.33
2023-05-06T05:08:48.998Z,21.37
2023-05-06T05:11:16.820Z,21.38
2023-05-06T05:13:43.913Z,21.49
2023-05-06T05:16:11.265Z,21.51
2023-05-06T05:18:41.452Z,21.45
2023-05-06T05:21:16.016Z,21.42
2023-05-06T05:23:43.612Z,21.42
2023-05-06T05:26:11.697Z,21.39
2023-05-06T05:28:40.076Z,21.42
2023-05-06T05:31:09.644Z,21.39
2023-05-06T05:33:37.792Z,21.35
2023-05-06T05:36:08.628Z,21.17
2023-05-06T05:38:40.438Z,21.21
2023-05-06T05:41:08.651Z,21.30
2023-05-06T05:43:36.154Z,21.24
2023-05-06T05:46:03.799Z,21.14
2023-05-06T05:48:32.973Z,21.27
2023-05-06T05:51:02.755Z,21.24
2023-05-06T05:53:30.010Z,21.25
2023-05-06T05:55:59.825Z,21.08
2023-05-06T05:58:27.177Z,21.20
2023-05-06T06:00:57.575Z,21.07
2023-05-06T06:03:25.263Z,21.06
2023-05-06T06:05:55.295Z,20.91
2023-05-06T06:08:28.639Z,21.10
2023-05-06T06:11:09.047Z,21.08
2023-05-06T06:13:53.712Z,21.09
2023-05-06T06:16:27.549Z,21.31
2023-05-06T06:19:00.571Z,21.51
2023-05-06T06:21:35.751Z,21.42
2023-05-06T06:24:13.186Z,21.55
2023-05-06T06:26:48.482Z,21.43
2023-05-06T06:29:16.698Z,21.53
2023-05-06T06:31:44.060Z,21.63
2023-05-06T06:34:12.944Z,21.57
2023-05-06T06:36:45.503Z,21.40
2023-05-06T06:39:20.309Z,21.46
2023-05-06T06:41:51.484Z,21.55
2023-05-06T06:44:18.705Z,21.60
2023-05-06T06:46:57.102Z,21.68
2023-05-06T06:49:33.877Z,21.58
2023-05-06T06:52:03.952Z,21.45
2023-05-06T06:54:43.173Z,21.56
2023-05-06T06:57:21.876Z,21.72
2023-05-06T06:59:57.298Z,21.86
2023-05-06T07:02:36.449Z,21.91
2023-05-06T07:05:17.943Z,22.01
2023-05-06T07:07:56.567Z,21.90
2023-05-06T07:10:34.990Z,21.88
2023-05-06T07:13:16.885Z,22.08
2023-05-06T07:15:53.102Z,22.04
2023-05-06T07:18:33.776Z,22.13
2023-05-06T07:21:32.388Z,22.29
2023-05-06T07:24:09.162Z,22.14
2023-05-06T07:26:44.914Z,22.24
2023-05-06T07:29:25.268Z,22.33
2023-05-06T07:32:01.101Z,22.47
2023-05-06T07:34:50.295Z,22.52
2023-05-06T07:37:34.463Z,22.61
2023-05-06T07:40:21.955Z,22.75
2023-05-06T07:43:00.077Z,22.79
2023-05-06T07:45:33.362Z,22.89
2023-05-06T07:48:11.549Z,22.97
2023-05-06T07:50:47.660Z,22.83
2023-05-06T07:53:31.301Z,23.08
2023-05-06T07:56:04.993Z,23.27
2023-05-06T07:58:51.516Z,23.42
2023-05-06T08:01:26.526Z,23.59
2023-05-06T08:04:04.793Z,23.67
2023-05-06T08:06:41.251Z,23.86
2023-05-06T08:09:19.697Z,23.75
2023-05-06T08:12:19.193Z,23.81
2023-05-06T08:14:58.494Z,24.36
2023-05-06T08:17:40.679Z,24.65
2023-05-06T08:20:25.204Z,24.71
2023-05-06T08:23:12.263Z,24.92
2023-05-06T08:26:14.897Z,25.13
2023-05-06T08:29:02.082Z,25.20
2023-05-06T08:31:46.071Z,25.35
2023-05-06T08:34:26.809Z,25.52
2023-05-06T08:37:08.076Z,25.56
2023-05-06T08:39:50.407Z,25.84
2023-05-06T08:42:46.872Z,26.00
2023-05-06T08:45:23.746Z,25.90
2023-05-06T08:48:07.016Z,25.94
2023-05-06T08:50:43.364Z,26.00
2023-05-06T08:53:21.817Z,26.37
2023-05-06T08:56:27.556Z,26.22
2023-05-06T08:59:09.658Z,26.41
2023-05-06T09:01:53.745Z,26.24
2023-05-06T09:04:36.943Z,26.44
2023-05-06T09:07:25.889Z,26.58
2023-05-06T09:10:11.333Z,26.90
2023-05-06T09:12:48.027Z,26.89
2023-05-06T09:15:24.258Z,26.30
2023-05-06T09:18:00.970Z,26.59
2023-05-06T09:20:39.673Z,26.57
2023-05-06T09:23:21.105Z,26.37
2023-05-06T09:25:53.815Z,26.67
2023-05-06T09:28:37.164Z,26.31
2023-05-06T09:31:39.948Z,26.45
2023-05-06T09:34:28.437Z,26.74
2023-05-06T09:37:28.304Z,27.00
2023-05-06T09:40:04.618Z,27.13
2023-05-06T09:42:35.423Z,27.42
2023-05-06T09:45:21.095Z,27.31
2023-05-06T09:48:04.731Z,27.11
2023-05-06T09:50:46.223Z,27.25
2023-05-06T09:53:35.802Z,27.22
2023-05-06T09:56:27.304Z,27.28
2023-05-06T09:59:09.542Z,27.61
2023-05-06T10:01:52.713Z,27.81
2023-05-06T10:04:29.992Z,27.66
2023-05-06T10:07:13.885Z,27.92
2023-05-06T10:09:54.360Z,28.24
2023-05-06T10:12:36.955Z,27.87
2023-05-06T10:15:27.359Z,28.02
2023-05-06T10:18:08.283Z,28.15
2023-05-06T10:20:49.783Z,28.15
2023-05-06T10:23:53.853Z,28.56
2023-05-06T10:26:36.300Z,28.25
2023-05-06T10:29:17.960Z,27.77
2023-05-06T10:32:02.250Z,28.17
2023-05-06T10:34:56.758Z,27.77
2023-05-06T10:37:29.315Z,27.98
2023-05-06T10:40:00.965Z,28.27
2023-05-06T10:42:34.590Z,28.30
2023-05-06T10:45:04.494Z,28.26
2023-05-06T10:47:56.331Z,28.40
2023-05-06T10:50:28.031Z,28.71
2023-05-06T10:53:01.212Z,28.67
2023-05-06T10:55:33.765Z,28.73
2023-05-06T10:58:04.448Z,28.67
2023-05-06T11:00:33.210Z,28.22
2023-05-06T11:03:09.372Z,28.47
2023-05-06T11:05:52.763Z,28.29
2023-05-06T11:08:27.678Z,28.55
2023-05-06T11:10:55.404Z,28.43
2023-05-06T11:13:29.380Z,28.73
2023-05-06T11:16:00.390Z,27.95
2023-05-06T11:18:49.483Z,28.30
2023-05-06T11:21:34.589Z,28.34
2023-05-06T11:24:04.959Z,28.49
2023-05-06T11:26:49.924Z,28.81
2023-05-06T11:29:38.073Z,28.63
2023-05-06T11:32:23.696Z,29.01
2023-05-06T11:35:11.821Z,29.23
2023-05-06T11:37:48.071Z,29.39
2023-05-06T11:40:17.291Z,28.82
2023-05-06T11:43:26.264Z,29.17
2023-05-06T11:46:00.804Z,29.30
2023-05-06T11:48:33.748Z,28.94
2023-05-06T11:51:19.087Z,29.03
2023-05-06T11:54:17.566Z,28.48
2023-05-06T11:57:18.631Z,29.14
2023-05-06T12:00:08.989Z,28.84
2023-05-06T12:02:49.410Z,29.19
2023-05-06T12:05:23.757Z,29.05
2023-05-06T12:08:41.081Z,28.80
2023-05-06T12:11:16.363Z,28.56
2023-05-06T12:13:58.737Z,28.47
2023-05-06T12:16:35.775Z,28.13
2023-05-06T12:19:06.370Z,28.05
2023-05-06T12:21:42.821Z,28.10
2023-05-06T12:24:11.074Z,27.67
2023-05-06T12:26:55.878Z,28.05
2023-05-06T12:29:29.787Z,28.15
2023-05-06T12:32:25.036Z,27.44
2023-05-06T12:34:59.888Z,27.84
2023-05-06T12:37:36.181Z,27.47
2023-05-06T12:40:12.046Z,27.50
2023-05-06T12:43:03.692Z,27.74
2023-05-06T12:45:38.114Z,27.96
2023-05-06T12:48:35.445Z,27.78
2023-05-06T12:51:31.171Z,27.02
2023-05-06T12:54:05.580Z,27.47
2023-05-06T12:56:36.659Z,26.97
2023-05-06T12:59:09.210Z,26.55
2023-05-06T13:01:42.388Z,26.67
2023-05-06T13:04:12.719Z,26.60
2023-05-06T13:06:49.070Z,26.45
2023-05-06T13:09:26.170Z,26.23
2023-05-06T13:12:02.747Z,26.43
2023-05-06T13:14:44.803Z,26.24
2023-05-06T13:17:18.033Z,26.22
2023-05-06T13:19:51.359Z,26.35
2023-05-06T13:22:23.980Z,26.35
2023-05-06T13:24:54.870Z,26.04
2023-05-06T13:27:33.441Z,26.09
2023-05-06T13:30:07.709Z,25.99
2023-05-06T13:32:38.223Z,25.89
2023-05-06T13:35:10.576Z,25.92
2023-05-06T13:37:41.410Z,25.84
2023-05-06T13:40:15.184Z,25.88
2023-05-06T13:42:56.434Z,26.05
2023-05-06T13:45:35.393Z,25.67
2023-05-06T13:48:05.323Z,25.97
2023-05-06T13:50:46.020Z,26.24
2023-05-06T13:53:26.590Z,25.92
2023-05-06T13:56:21.289Z,26.09
2023-05-06T13:59:07.194Z,26.13
2023-05-06T14:01:46.938Z,26.44
2023-05-06T14:04:19.472Z,26.35
2023-05-06T14:07:01.508Z,26.57
2023-05-06T14:09:46.710Z,26.83
2023-05-06T14:15:11.526Z,26.98
2023-05-06T14:17:49.711Z,26.74
2023-05-06T14:20:27.950Z,26.98
2023-05-06T14:23:00.523Z,26.72
2023-05-06T14:25:30.964Z,26.62
2023-05-06T14:28:06.645Z,25.92
2023-05-06T14:31:05.935Z,26.23
2023-05-06T14:33:50.595Z,25.61
2023-05-06T14:36:31.314Z,25.87
2023-05-06T14:39:08.957Z,25.59
2023-05-06T14:41:42.385Z,26.01
2023-05-06T14:44:12.911Z,25.53
2023-05-06T14:46:48.015Z,25.37
2023-05-06T14:49:15.366Z,25.58
2023-05-06T14:51:48.077Z,25.79
2023-05-06T14:54:38.374Z,25.40
2023-05-06T14:57:31.971Z,25.10
2023-05-06T15:00:07.546Z,25.31
2023-05-06T15:02:42.629Z,25.66
2023-05-06T15:05:24.820Z,25.58
2023-05-06T15:08:01.023Z,25.29
2023-05-06T15:10:41.585Z,25.51
2023-05-06T15:13:25.317Z,25.59
2023-05-06T15:15:59.526Z,25.65
2023-05-06T15:18:33.768Z,25.67
2023-05-06T15:21:01.754Z,25.57
2023-05-06T15:23:31.469Z,25.53
2023-05-06T15:26:06.629Z,25.86
2023-05-06T15:28:37.581Z,25.65
2023-05-06T15:31:12.778Z,25.34
2023-05-06T15:33:48.011Z,25.04
2023-05-06T15:36:23.744Z,25.61
2023-05-06T15:39:13.719Z,25.67
2023-05-06T15:41:56.166Z,25.74
2023-05-06T15:44:23.501Z,25.56
2023-05-06T15:46:50.696Z,25.41
2023-05-06T15:52:01.031Z,25.46
2023-05-06T15:54:50.439Z,25.44
2023-05-06T16:00:13.678Z,25.47
2023-05-06T16:02:47.154Z,25.31
2023-05-06T16:05:14.486Z,25.07
2023-05-06T16:07:43.992Z,25.26
2023-05-06T16:10:16.530Z,25.36
2023-05-06T16:12:57.972Z,25.25
2023-05-06T16:15:38.462Z,25.27
2023-05-06T16:18:25.218Z,25.23
2023-05-06T16:20:56.841Z,25.28
2023-05-06T16:23:26.907Z,25.53
2023-05-06T16:26:00.378Z,25.58
2023-05-06T16:28:28.288Z,25.54
2023-05-06T16:30:56.177Z,25.64
2023-05-06T16:33:26.071Z,25.34
2023-05-06T16:35:59.427Z,25.51
2023-05-06T16:38:27.362Z,25.62
2023-05-06T16:41:03.300Z,25.02
2023-05-06T16:43:33.381Z,24.99
2023-05-06T16:46:00.929Z,25.38
2023-05-06T16:48:30.661Z,25.26
2023-05-06T16:51:04.896Z,25.09
2023-05-06T16:53:45.499Z,25.19
2023-05-06T16:56:13.540Z,24.66
2023-05-06T16:58:46.032Z,25.06
2023-05-06T17:01:18.255Z,25.23
2023-05-06T17:03:46.192Z,25.20
2023-05-06T17:06:13.919Z,25.11
2023-05-06T17:08:44.211Z,25.23
2023-05-06T17:11:23.324Z,25.36
2023-05-06T17:13:50.786Z,25.18
2023-05-06T17:16:20.783Z,25.21
2023-05-06T17:18:50.786Z,25.13
2023-05-06T17:21:18.669Z,25.15
2023-05-06T17:23:52.875Z,25.19
2023-05-06T17:26:25.694Z,25.14
2023-05-06T17:28:52.908Z,24.74
2023-05-06T17:31:20.368Z,24.83
2023-05-06T17:33:53.557Z,24.64
2023-05-06T17:36:34.881Z,24.51
2023-05-06T17:39:10.399Z,24.21
2023-05-06T17:41:37.800Z,24.70
2023-05-06T17:44:06.798Z,24.56
2023-05-06T17:46:34.066Z,24.53
2023-05-06T17:49:03.879Z,24.77
2023-05-06T17:51:31.769Z,24.76
2023-05-06T17:53:59.733Z,24.93
2023-05-06T17:56:29.751Z,24.88
2023-05-06T17:59:06.747Z,24.93
2023-05-06T18:01:41.445Z,24.82
2023-05-06T18:04:10.968Z,24.91
2023-05-06T18:06:38.638Z,24.95
2023-05-06T18:09:06.152Z,24.62
2023-05-06T18:11:37.507Z,24.53
2023-05-06T18:14:08.980Z,24.71
2023-05-06T18:16:37.919Z,24.93
2023-05-06T18:19:05.424Z,24.79
2023-05-06T18:21:38.129Z,24.71
2023-05-06T18:24:17.279Z,24.68
2023-05-06T18:26:51.411Z,24.62
2023-05-06T18:29:30.281Z,24.51
2023-05-06T18:32:06.841Z,24.56
2023-05-06T18:34:37.497Z,24.29
2023-05-06T18:37:07.888Z,24.31
2023-05-06T18:39:45.745Z,24.23
2023-05-06T18:42:13.085Z,24.23
2023-05-06T18:44:53.759Z,24.20
2023-05-06T18:47:27.363Z,24.37
2023-05-06T18:50:02.834Z,24.23
2023-05-06T18:52:32.672Z,24.32
2023-05-06T18:55:00.084Z,24.16
2023-05-06T18:57:27.838Z,24.30
2023-05-06T18:59:58.200Z,24.22
2023-05-06T19:02:26.965Z,24.08
2023-05-06T19:04:56.908Z,24.17
2023-05-06T19:07:27.084Z,24.14
2023-05-06T19:10:00.876Z,24.22
2023-05-06T19:12:40.591Z,24.14
2023-05-06T19:15:08.746Z,24.17
2023-05-06T19:17:39.428Z,24.16
2023-05-06T19:20:09.784Z,24.14
2023-05-06T19:22:37.099Z,24.12
2023-05-06T19:25:04.529Z,24.10
2023-05-06T19:27:35.150Z,24.09
2023-05-06T19:30:05.104Z,23.96
2023-05-06T19:32:33.104Z,23.97
2023-05-06T19:35:08.372Z,23.93
2023-05-06T19:37:36.079Z,23.99
2023-05-06T19:40:06.884Z,23.99
2023-05-06T19:42:37.236Z,24.08
2023-05-06T19:45:09.038Z,24.15
2023-05-06T19:47:36.393Z,24.11
2023-05-06T19:50:06.199Z,24.02
2023-05-06T19:52:34.830Z,24.18
2023-05-06T19:55:03.400Z,24.06
2023-05-06T19:57:34.141Z,23.90
2023-05-06T20:00:05.983Z,24.03
2023-05-06T20:02:33.941Z,24.21
2023-05-06T20:05:01.018Z,24.10
2023-05-06T20:07:30.607Z,24.16
2023-05-06T20:09:58.751Z,24.02
2023-05-06T20:12:29.181Z,23.97
2023-05-06T20:14:56.824Z,23.95
2023-05-06T20:17:26.647Z,24.13
2023-05-06T20:19:58.757Z,24.05
2023-05-06T20:22:26.596Z,24.05
2023-05-06T20:24:54.092Z,24.15
2023-05-06T20:27:21.497Z,24.01
2023-05-06T20:29:50.043Z,23.98
2023-05-06T20:32:17.305Z,23.96
2023-05-06T20:34:44.348Z,23.91
2023-05-06T20:37:12.111Z,23.96
2023-05-06T20:39:39.282Z,24.06
2023-05-06T20:42:09.939Z,24.09
2023-05-06T20:44:41.421Z,24.04
2023-05-06T20:47:12.679Z,24.08
2023-05-06T20:49:40.046Z,23.93
2023-05-06T20:52:08.214Z,24.02
2023-05-06T20:54:35.306Z,24.12
2023-05-06T20:57:05.282Z,24.16
2023-05-06T20:59:32.437Z,24.02
2023-05-06T21:01:59.713Z,23.95
2023-05-06T21:04:27.028Z,23.94
2023-05-06T21:06:54.090Z,24.00
2023-05-06T21:09:23.840Z,23.86
2023-05-06T21:11:51.782Z,24.00
2023-05-06T21:14:19.131Z,23.96
2023-05-06T21:16:46.181Z,23.96
2023-05-06T21:19:13.497Z,24.03
2023-05-06T21:21:40.611Z,24.01
2023-05-06T21:24:08.713Z,23.92
2023-05-06T21:26:35.896Z,23.94
2023-05-06T21:29:02.957Z,23.93
2023-05-06T21:31:30.457Z,23.93
2023-05-06T21:33:58.989Z,23.93
2023-05-06T21:36:26.331Z,23.96
2023-05-06T21:39:08.127Z,23.97
2023-05-06T21:41:36.256Z,23.86
2023-05-06T21:44:04.707Z,23.93
2023-05-06T21:46:32.668Z,23.82
2023-05-06T21:48:59.985Z,23.89
2023-05-06T21:51:35.309Z,23.89
2023-05-06T21:54:03.130Z,23.87
2023-05-06T21:56:30.839Z,23.91
2023-05-06T21:59:01.300Z,23.91
2023-05-06T22:01:31.397Z,23.89
2023-05-06T22:04:01.883Z,23.94
2023-05-06T22:06:31.757Z,23.89
2023-05-06T22:09:00.199Z,23.79
2023-05-06T22:11:27.386Z,23.74
2023-05-06T22:13:54.396Z,23.86
2023-05-06T22:16:22.338Z,23.78
2023-05-06T22:18:49.586Z,23.84
2023-05-06T22:21:16.882Z,23.87
2023-05-06T22:23:44.751Z,23.83
2023-05-06T22:26:13.452Z,23.79
2023-05-06T22:28:42.290Z,23.86
2023-05-06T22:31:10.016Z,23.87
2023-05-06T22:33:37.068Z,23.80
2023-05-06T22:36:04.512Z,23.79
2023-05-06T22:38:32.686Z,23.84
2023-05-06T22:41:04.544Z,23.85
2023-05-06T22:43:36.108Z,23.78
2023-05-06T22:46:04.064Z,23.83
2023-05-06T22:48:34.981Z,23.91
2023-05-06T22:51:05.921Z,23.90
2023-05-06T22:53:33.027Z,23.85
2023-05-06T22:56:00.180Z,23.82
2023-05-06T22:58:27.242Z,23.77
2023-05-06T23:00:55.080Z,23.75
2023-05-06T23:03:25.288Z,23.72
2023-05-06T23:05:52.531Z,23.74
2023-05-06T23:08:19.756Z,23.72
2023-05-06T23:10:47.081Z,23.70
2023-05-06T23:13:16.568Z,23.71
2023-05-06T23:15:43.715Z,23.63
2023-05-06T23:18:11.640Z,23.61
2023-05-06T23:20:38.874Z,23.62
2023-05-06T23:23:08.920Z,23.59
2023-05-06T23:25:36.269Z,23.54
2023-05-06T23:28:03.643Z,23.45
2023-05-06T23:30:30.944Z,23.44
2023-05-06T23:32:58.225Z,23.35
2023-05-06T23:35:26.298Z,23.32
2023-05-06T23:37:53.426Z,23.36
2023-05-06T23:40:23.722Z,23.46
2023-05-06T23:42:50.762Z,23.55
2023-05-06T23:45:17.780Z,23.30
2023-05-06T23:47:44.846Z,23.24
2023-05-06T23:50:12.656Z,23.28
2023-05-06T23:52:41.043Z,23.29
2023-05-06T23:55:08.627Z,23.29
2023-05-06T23:57:39.071Z,23.21
